createdAt,value
2023-07-23T00:01:17.003Z,57.79
2023-07-23T00:03:56.469Z,57.57
2023-07-23T00:06:35.883Z,57.44
2023-07-23T00:09:15.430Z,57.29
2023-07-23T00:12:00.746Z,56.97
2023-07-23T00:14:40.276Z,56.79
2023-07-23T00:17:19.579Z,56.98
2023-07-23T00:19:58.896Z,57.14
2023-07-23T00:22:38.316Z,57.60
2023-07-23T00:25:18.247Z,57.58
2023-07-23T00:28:02.771Z,57.71
2023-07-23T00:30:43.392Z,57.84
2023-07-23T00:33:25.440Z,57.86
2023-07-23T00:36:04.758Z,57.87
2023-07-23T00:38:44.083Z,58.01
2023-07-23T00:41:23.605Z,58.25
2023-07-23T00:44:08.562Z,58.10
2023-07-23T00:46:47.866Z,57.77
2023-07-23T00:49:27.387Z,57.69
2023-07-23T00:52:08.050Z,57.82
2023-07-23T00:54:47.497Z,58.13
2023-07-23T00:57:27.407Z,58.35
2023-07-23T01:00:15.131Z,58.50
2023-07-23T01:02:55.311Z,58.80
2023-07-23T01:05:35.455Z,58.88
2023-07-23T01:08:16.498Z,58.89
2023-07-23T01:10:56.555Z,58.17
2023-07-23T01:13:36.396Z,58.39
2023-07-23T01:16:21.346Z,58.48
2023-07-23T01:19:01.493Z,58.10
2023-07-23T01:21:40.813Z,58.22
2023-07-23T01:24:25.295Z,57.90
2023-07-23T01:27:04.656Z,58.23
2023-07-23T01:29:44.076Z,58.41
2023-07-23T01:32:23.478Z,58.55
2023-07-23T01:35:05.866Z,59.00
2023-07-23T01:37:45.594Z,59.08
2023-07-23T01:40:30.304Z,58.92
2023-07-23T01:43:09.818Z,59.38
2023-07-23T01:45:50.495Z,59.40
2023-07-23T01:48:32.498Z,59.57
2023-07-23T01:51:12.937Z,59.68
2023-07-23T01:53:52.327Z,59.45
2023-07-23T01:56:36.774Z,59.64
2023-07-23T01:59:16.102Z,60.44
2023-07-23T02:01:55.436Z,60.53
2023-07-23T02:04:34.815Z,59.62
2023-07-23T02:07:14.236Z,59.73
2023-07-23T02:09:57.092Z,59.98
2023-07-23T02:12:41.662Z,60.02
2023-07-23T02:15:21.883Z,60.05
2023-07-23T02:18:01.249Z,60.27
2023-07-23T02:20:40.627Z,59.94
2023-07-23T02:23:19.940Z,60.54
2023-07-23T02:25:59.315Z,60.33
2023-07-23T02:28:45.909Z,60.48
2023-07-23T02:31:25.529Z,60.27
2023-07-23T02:34:05.011Z,60.45
2023-07-23T02:36:44.488Z,61.24
2023-07-23T02:39:23.869Z,61.27
2023-07-23T02:42:03.221Z,60.89
2023-07-23T02:44:47.593Z,61.36
2023-07-23T02:47:26.938Z,60.82
2023-07-23T02:50:06.290Z,61.44
2023-07-23T02:52:45.606Z,61.89
2023-07-23T02:55:27.373Z,61.43
2023-07-23T02:58:07.248Z,61.45
2023-07-23T03:00:52.172Z,61.50
2023-07-23T03:03:31.884Z,61.82
2023-07-23T03:06:14.616Z,61.55
2023-07-23T03:08:53.949Z,61.16
2023-07-23T03:11:33.279Z,61.67
2023-07-23T03:14:12.614Z,61.61
2023-07-23T03:16:57.038Z,61.36
2023-07-23T03:19:36.350Z,61.87
2023-07-23T03:22:15.736Z,61.92
2023-07-23T03:24:55.197Z,62.14
2023-07-23T03:27:34.518Z,62.41
2023-07-23T03:30:15.294Z,62.39
2023-07-23T03:32:59.754Z,62.37
2023-07-23T03:35:39.070Z,62.87
2023-07-23T03:38:18.394Z,62.91
2023-07-23T03:40:57.835Z,62.58
2023-07-23T03:43:37.161Z,62.88
2023-07-23T03:46:16.471Z,63.15
2023-07-23T03:49:00.939Z,63.45
2023-07-23T03:51:40.271Z,63.52
2023-07-23T03:54:19.571Z,63.57
2023-07-23T03:56:58.861Z,63.40
2023-07-23T03:59:42.420Z,63.71
2023-07-23T04:02:22.055Z,64.16
2023-07-23T04:05:06.741Z,64.39
2023-07-23T04:07:46.093Z,64.50
2023-07-23T04:10:25.616Z,64.67
2023-07-23T04:13:05.816Z,64.79
2023-07-23T04:15:45.120Z,64.77
2023-07-23T04:18:24.800Z,64.99
2023-07-23T04:21:09.201Z,65.22
2023-07-23T04:23:48.646Z,65.25
2023-07-23T04:26:28.987Z,65.25
2023-07-23T04:29:08.358Z,64.91
2023-07-23T04:31:47.864Z,64.94
2023-07-23T04:34:27.234Z,65.12
2023-07-23T04:37:13.921Z,65.39
2023-07-23T04:39:53.296Z,65.23
2023-07-23T04:42:32.581Z,65.04
2023-07-23T04:45:13.214Z,64.99
2023-07-23T04:47:52.616Z,65.09
2023-07-23T04:50:32.098Z,65.29
2023-07-23T04:53:20.962Z,65.42
2023-07-23T04:56:01.066Z,65.29
2023-07-23T04:58:41.107Z,65.59
2023-07-23T05:01:21.369Z,65.75
2023-07-23T05:04:00.782Z,65.60
2023-07-23T05:06:40.103Z,65.58
2023-07-23T05:09:24.474Z,65.96
2023-07-23T05:12:03.828Z,65.75
2023-07-23T05:14:43.128Z,65.90
2023-07-23T05:17:22.751Z,65.98
2023-07-23T05:20:02.082Z,65.74
2023-07-23T05:22:41.580Z,65.93
2023-07-23T05:25:26.167Z,66.00
2023-07-23T05:28:05.540Z,65.84
2023-07-23T05:30:45.128Z,66.00
2023-07-23T05:33:24.566Z,66.04
2023-07-23T05:36:03.867Z,65.50
2023-07-23T05:38:43.332Z,65.46
2023-07-23T05:41:28.060Z,65.51
2023-07-23T05:44:07.560Z,65.08
2023-07-23T05:46:47.056Z,65.34
2023-07-23T05:49:26.840Z,65.31
2023-07-23T05:52:07.467Z,65.47
2023-07-23T05:54:46.783Z,65.05
2023-07-23T06:00:16.433Z,64.62
2023-07-23T06:02:55.798Z,63.69
2023-07-23T06:05:35.207Z,63.51
2023-07-23T06:08:14.496Z,63.51
2023-07-23T06:10:53.882Z,63.32
2023-07-23T06:13:38.309Z,62.71
2023-07-23T06:16:18.237Z,62.56
2023-07-23T06:18:58.230Z,62.19
2023-07-23T06:21:37.648Z,62.07
2023-07-23T06:24:16.991Z,62.06
2023-07-23T06:26:56.357Z,62.26
2023-07-23T06:29:41.226Z,62.73
2023-07-23T06:32:20.537Z,62.22
2023-07-23T06:35:00.955Z,61.62
2023-07-23T06:37:41.532Z,61.42
2023-07-23T06:40:20.973Z,61.47
2023-07-23T06:43:00.457Z,61.12
2023-07-23T06:45:44.867Z,61.22
2023-07-23T06:48:30.489Z,61.40
2023-07-23T06:51:09.794Z,61.17
2023-07-23T06:53:51.455Z,60.88
2023-07-23T06:56:30.777Z,61.48
2023-07-23T06:59:10.642Z,61.27
2023-07-23T07:01:55.132Z,60.93
2023-07-23T07:04:34.782Z,60.91
2023-07-23T07:07:14.433Z,61.25
2023-07-23T07:09:54.727Z,60.96
2023-07-23T07:12:34.041Z,58.59
2023-07-23T07:15:14.319Z,58.10
2023-07-23T07:17:58.765Z,56.51
2023-07-23T07:20:38.109Z,56.01
2023-07-23T07:23:17.421Z,56.00
2023-07-23T07:25:56.838Z,55.70
2023-07-23T07:28:38.399Z,54.30
2023-07-23T07:31:18.030Z,53.47
2023-07-23T07:34:02.453Z,53.62
2023-07-23T07:36:41.853Z,52.91
2023-07-23T07:39:21.169Z,52.41
2023-07-23T07:42:00.982Z,51.60
2023-07-23T07:44:40.312Z,51.52
2023-07-23T07:47:19.670Z,50.98
2023-07-23T07:50:05.477Z,50.53
2023-07-23T07:52:44.905Z,50.47
2023-07-23T07:55:24.451Z,49.96
2023-07-23T07:58:04.534Z,50.31
2023-07-23T08:00:44.865Z,49.78
2023-07-23T08:03:25.150Z,49.23
2023-07-23T08:06:10.994Z,48.90
2023-07-23T08:08:52.138Z,48.50
2023-07-23T08:11:33.884Z,48.00
2023-07-23T08:14:15.828Z,47.32
2023-07-23T08:16:57.115Z,47.31
2023-07-23T08:19:36.848Z,46.80
2023-07-23T08:22:22.560Z,46.66
2023-07-23T08:25:03.326Z,46.58
2023-07-23T08:27:45.506Z,46.81
2023-07-23T08:30:26.659Z,46.15
2023-07-23T08:33:09.199Z,45.80
2023-07-23T08:35:48.805Z,46.40
2023-07-23T08:38:35.015Z,45.89
2023-07-23T08:41:30.562Z,46.14
2023-07-23T08:44:58.558Z,46.09
2023-07-23T08:47:44.237Z,45.75
2023-07-23T08:50:23.918Z,45.92
2023-07-23T08:53:03.828Z,45.38
2023-07-23T08:55:50.533Z,45.34
2023-07-23T08:58:29.980Z,45.68
2023-07-23T09:01:09.576Z,45.89
2023-07-23T09:03:49.085Z,46.09
2023-07-23T09:06:28.637Z,46.22
2023-07-23T09:09:12.642Z,45.41
2023-07-23T09:11:57.360Z,45.23
2023-07-23T09:14:36.634Z,45.43
2023-07-23T09:17:24.733Z,45.85
2023-07-23T09:20:04.060Z,45.56
2023-07-23T09:22:43.412Z,45.80
2023-07-23T09:25:23.707Z,45.70
2023-07-23T09:28:08.102Z,45.33
2023-07-23T09:30:47.511Z,45.62
2023-07-23T09:33:26.922Z,45.48
2023-07-23T09:36:07.515Z,46.15
2023-07-23T09:38:48.561Z,45.82
2023-07-23T09:41:30.661Z,45.40
2023-07-23T09:44:19.564Z,45.04
2023-07-23T09:46:59.272Z,44.05
2023-07-23T09:49:39.115Z,43.61
2023-07-23T09:52:18.424Z,42.88
2023-07-23T09:54:59.805Z,42.69
2023-07-23T09:57:40.797Z,42.64
2023-07-23T10:00:26.883Z,41.38
2023-07-23T10:03:09.067Z,41.09
2023-07-23T10:05:48.942Z,41.17
2023-07-23T10:08:30.555Z,40.48
2023-07-23T10:11:09.971Z,40.74
2023-07-23T10:13:51.312Z,40.69
2023-07-23T10:16:41.027Z,40.45
2023-07-23T10:19:22.813Z,41.00
2023-07-23T10:22:02.256Z,40.81
2023-07-23T10:24:50.111Z,40.45
2023-07-23T10:27:29.504Z,40.06
2023-07-23T10:30:24.993Z,40.00
2023-07-23T10:33:34.755Z,39.53
2023-07-23T10:36:19.260Z,39.26
2023-07-23T10:39:26.807Z,39.08
2023-07-23T10:42:06.105Z,39.27
2023-07-23T10:44:46.940Z,39.50
2023-07-23T10:47:38.656Z,39.76
2023-07-23T10:50:19.315Z,39.74
2023-07-23T10:53:10.153Z,39.96
2023-07-23T10:55:52.920Z,40.32
2023-07-23T10:58:32.411Z,40.25
2023-07-23T11:01:14.269Z,40.93
2023-07-23T11:03:54.611Z,41.42
2023-07-23T11:06:38.781Z,41.76
2023-07-23T11:09:33.074Z,40.74
2023-07-23T11:12:15.445Z,40.73
2023-07-23T11:14:54.728Z,40.84
2023-07-23T11:17:35.397Z,41.18
2023-07-23T11:20:17.071Z,40.82
2023-07-23T11:22:57.245Z,40.86
2023-07-23T11:25:41.720Z,40.70
2023-07-23T11:28:21.213Z,40.51
2023-07-23T11:31:05.135Z,40.26
2023-07-23T11:33:44.621Z,39.73
2023-07-23T11:36:24.107Z,40.09
2023-07-23T11:39:04.773Z,39.38
2023-07-23T11:41:50.101Z,39.11
2023-07-23T11:44:30.283Z,38.89
2023-07-23T11:47:09.740Z,38.29
2023-07-23T11:49:49.131Z,38.23
2023-07-23T11:52:30.893Z,38.81
2023-07-23T11:55:10.374Z,38.54
2023-07-23T11:57:59.305Z,38.87
2023-07-23T12:00:42.038Z,38.59
2023-07-23T12:03:21.500Z,38.22
2023-07-23T12:06:05.107Z,38.08
2023-07-23T12:08:45.575Z,38.30
2023-07-23T12:11:26.225Z,37.19
2023-07-23T12:14:12.049Z,36.00
2023-07-23T12:16:53.483Z,34.42
2023-07-23T12:19:32.818Z,33.10
2023-07-23T12:22:12.790Z,33.14
2023-07-23T12:24:52.182Z,33.30
2023-07-23T12:27:31.627Z,33.20
2023-07-23T12:30:16.601Z,33.83
2023-07-23T12:32:56.735Z,33.23
2023-07-23T12:35:36.093Z,31.68
2023-07-23T12:38:15.390Z,31.02
2023-07-23T12:40:54.696Z,30.48
2023-07-23T12:43:35.368Z,31.04
2023-07-23T12:46:19.817Z,31.06
2023-07-23T12:48:59.147Z,31.42
2023-07-23T12:51:38.474Z,31.50
2023-07-23T12:54:17.832Z,31.46
2023-07-23T12:56:58.280Z,31.88
2023-07-23T12:59:37.844Z,31.89
2023-07-23T13:02:22.735Z,32.25
2023-07-23T13:05:02.021Z,32.32
2023-07-23T13:07:41.754Z,31.94
2023-07-23T13:10:21.094Z,31.96
2023-07-23T13:13:00.396Z,32.28
2023-07-23T13:15:39.724Z,32.21
2023-07-23T13:18:24.688Z,32.28
2023-07-23T13:21:05.373Z,32.57
2023-07-23T13:23:44.656Z,33.21
2023-07-23T13:26:23.980Z,33.08
2023-07-23T13:29:03.283Z,33.01
2023-07-23T13:31:42.611Z,32.50
2023-07-23T13:34:27.033Z,32.55
2023-07-23T13:37:06.416Z,32.57
2023-07-23T13:39:45.720Z,32.97
2023-07-23T13:42:28.089Z,33.31
2023-07-23T13:45:07.372Z,33.17
2023-07-23T13:47:46.738Z,33.60
2023-07-23T13:50:45.311Z,34.01
2023-07-23T13:53:31.687Z,34.53
2023-07-23T13:56:11.309Z,34.69
2023-07-23T13:58:50.606Z,34.78
2023-07-23T14:01:30.313Z,34.84
2023-07-23T14:04:09.754Z,34.63
2023-07-23T14:06:54.176Z,35.19
2023-07-23T14:09:33.793Z,34.09
2023-07-23T14:12:14.231Z,33.46
2023-07-23T14:14:53.517Z,33.25
2023-07-23T14:17:32.872Z,33.14
2023-07-23T14:20:13.317Z,33.00
2023-07-23T14:22:57.739Z,32.77
2023-07-23T14:25:37.184Z,33.11
2023-07-23T14:28:16.467Z,32.74
2023-07-23T14:30:55.801Z,32.45
2023-07-23T14:33:35.818Z,32.14
2023-07-23T14:36:15.165Z,32.87
2023-07-23T14:39:00.696Z,32.90
2023-07-23T14:41:40.028Z,32.80
2023-07-23T14:44:19.338Z,32.75
2023-07-23T14:46:58.699Z,32.87
2023-07-23T14:49:39.376Z,32.76
2023-07-23T14:52:18.723Z,32.78
2023-07-23T14:55:05.253Z,33.14
2023-07-23T14:57:44.805Z,32.99
2023-07-23T15:00:24.705Z,32.92
2023-07-23T15:03:04.290Z,32.93
2023-07-23T15:05:43.745Z,32.53
2023-07-23T15:08:23.122Z,32.72
2023-07-23T15:11:07.657Z,32.35
2023-07-23T15:13:47.843Z,32.58
2023-07-23T15:16:28.350Z,32.87
2023-07-23T15:19:08.277Z,32.93
2023-07-23T15:21:48.137Z,32.43
2023-07-23T15:24:28.155Z,32.83
2023-07-23T15:27:17.125Z,32.89
2023-07-23T15:29:56.646Z,32.88
2023-07-23T15:32:36.316Z,32.91
2023-07-23T15:35:16.923Z,32.82
2023-07-23T15:37:56.306Z,32.58
2023-07-23T15:40:35.877Z,32.66
2023-07-23T15:43:20.336Z,32.68
2023-07-23T15:46:01.787Z,32.34
2023-07-23T15:48:41.086Z,32.16
2023-07-23T15:55:25.150Z,28.88
2023-07-23T15:58:06.131Z,31.50
2023-07-23T16:00:47.445Z,31.78
2023-07-23T16:03:26.802Z,31.86
2023-07-23T16:06:07.252Z,32.29
2023-07-23T16:08:47.767Z,32.42
2023-07-23T16:11:32.636Z,32.49
2023-07-23T16:14:13.809Z,32.82
2023-07-23T16:16:53.261Z,33.01
2023-07-23T16:19:32.649Z,33.05
2023-07-23T16:22:14.132Z,33.48
2023-07-23T16:24:53.512Z,33.26
2023-07-23T16:27:38.094Z,33.26
2023-07-23T16:30:17.861Z,33.42
2023-07-23T16:32:57.909Z,33.57
2023-07-23T16:35:39.055Z,33.84
2023-07-23T16:38:20.819Z,34.09
2023-07-23T16:41:00.649Z,34.23
2023-07-23T16:43:45.576Z,34.24
2023-07-23T16:46:26.474Z,35.58
2023-07-23T16:49:05.816Z,36.37
2023-07-23T16:51:46.768Z,36.16
2023-07-23T16:54:26.097Z,36.66
2023-07-23T16:57:05.538Z,37.79
2023-07-23T16:59:50.141Z,39.67
2023-07-23T17:02:29.569Z,39.63
2023-07-23T17:05:09.060Z,40.19
2023-07-23T17:07:48.375Z,40.51
2023-07-23T17:10:27.754Z,40.14
2023-07-23T17:13:07.063Z,40.49
2023-07-23T17:15:51.633Z,41.06
2023-07-23T17:18:30.947Z,40.94
2023-07-23T17:21:10.237Z,40.95
2023-07-23T17:23:49.557Z,41.05
2023-07-23T17:26:29.150Z,41.58
2023-07-23T17:29:08.788Z,41.57
2023-07-23T17:31:53.216Z,41.53
2023-07-23T17:34:32.528Z,43.58
2023-07-23T17:37:12.585Z,44.42
2023-07-23T17:39:52.017Z,43.97
2023-07-23T17:42:31.403Z,44.45
2023-07-23T17:45:11.160Z,45.21
2023-07-23T17:47:55.580Z,44.34
2023-07-23T17:50:34.931Z,44.27
2023-07-23T17:53:14.430Z,44.19
2023-07-23T17:55:55.810Z,44.26
2023-07-23T17:58:35.221Z,44.57
2023-07-23T18:01:28.969Z,44.68
2023-07-23T18:04:18.540Z,44.59
2023-07-23T18:06:58.424Z,44.61
2023-07-23T18:09:37.742Z,44.71
2023-07-23T18:12:17.377Z,44.75
2023-07-23T18:14:56.927Z,45.72
2023-07-23T18:17:36.377Z,45.72
2023-07-23T18:20:21.085Z,45.46
2023-07-23T18:23:00.390Z,46.02
2023-07-23T18:25:50.634Z,46.55
2023-07-23T18:28:38.615Z,47.48
2023-07-23T18:31:34.377Z,47.30
2023-07-23T18:34:15.004Z,46.76
2023-07-23T18:36:59.445Z,46.41
2023-07-23T18:39:38.904Z,46.89
2023-07-23T18:42:18.228Z,48.25
2023-07-23T18:44:57.634Z,48.92
2023-07-23T18:47:36.989Z,51.22
2023-07-23T18:50:18.379Z,50.53
2023-07-23T18:53:02.878Z,50.44
2023-07-23T18:55:42.467Z,50.40
2023-07-23T18:58:21.847Z,51.34
2023-07-23T19:01:01.164Z,50.37
2023-07-23T19:03:41.402Z,50.95
2023-07-23T19:06:21.217Z,50.94
2023-07-23T19:09:05.709Z,50.98
2023-07-23T19:11:45.208Z,51.05
2023-07-23T19:14:24.494Z,52.02
2023-07-23T19:17:04.277Z,51.94
2023-07-23T19:19:43.806Z,51.64
2023-07-23T19:22:23.345Z,51.34
2023-07-23T19:25:07.782Z,51.98
2023-07-23T19:27:47.110Z,52.43
2023-07-23T19:30:26.781Z,52.64
2023-07-23T19:33:06.161Z,52.59
2023-07-23T19:35:45.748Z,52.61
2023-07-23T19:38:25.100Z,52.39
2023-07-23T19:41:09.519Z,53.19
2023-07-23T19:43:48.852Z,53.42
2023-07-23T19:46:29.301Z,53.57
2023-07-23T19:49:09.275Z,53.95
2023-07-23T19:51:48.624Z,54.01
2023-07-23T19:54:27.966Z,53.78
2023-07-23T19:57:15.346Z,53.99
2023-07-23T19:59:54.796Z,54.17
2023-07-23T20:02:34.180Z,53.78
2023-07-23T20:05:14.445Z,53.51
2023-07-23T20:07:53.744Z,53.30
2023-07-23T20:10:33.340Z,54.10
2023-07-23T20:13:17.728Z,54.81
2023-07-23T20:16:02.573Z,55.35
2023-07-23T20:18:41.959Z,56.12
2023-07-23T20:21:29.239Z,56.53
2023-07-23T20:24:22.991Z,56.94
2023-07-23T20:27:07.572Z,56.75
2023-07-23T20:29:53.705Z,56.14
2023-07-23T20:32:33.936Z,55.94
2023-07-23T20:35:15.116Z,56.08
2023-07-23T20:37:55.086Z,56.45
2023-07-23T20:40:35.347Z,56.55
2023-07-23T20:43:15.226Z,56.41
2023-07-23T20:45:59.590Z,56.82
2023-07-23T20:48:38.943Z,56.74
2023-07-23T20:51:18.230Z,57.03
2023-07-23T20:53:57.587Z,56.95
2023-07-23T20:56:36.965Z,56.78
2023-07-23T20:59:16.258Z,56.65
2023-07-23T21:02:00.636Z,56.94
2023-07-23T21:04:39.964Z,57.50
2023-07-23T21:07:19.657Z,57.89
2023-07-23T21:09:59.092Z,57.90
2023-07-23T21:12:38.412Z,58.00
2023-07-23T21:15:18.417Z,58.68
2023-07-23T21:18:02.892Z,58.77
2023-07-23T21:20:42.296Z,58.94
2023-07-23T21:23:21.620Z,58.66
2023-07-23T21:26:04.518Z,59.00
2023-07-23T21:28:43.853Z,58.93
2023-07-23T21:31:23.168Z,59.27
2023-07-23T21:34:07.603Z,59.00
2023-07-23T21:36:47.172Z,58.78
2023-07-23T21:39:26.589Z,59.24
2023-07-23T21:42:07.568Z,59.18
2023-07-23T21:44:47.895Z,59.18
2023-07-23T21:47:28.692Z,59.40
2023-07-23T21:50:14.228Z,59.73
2023-07-23T21:52:53.585Z,59.97
2023-07-23T21:55:33.162Z,60.22
2023-07-23T21:58:12.868Z,60.31
2023-07-23T22:00:52.194Z,59.83
2023-07-23T22:03:31.796Z,59.97
2023-07-23T22:06:17.378Z,59.86
2023-07-23T22:08:57.539Z,60.26
2023-07-23T22:11:36.887Z,60.39
2023-07-23T22:14:16.828Z,60.06
2023-07-23T22:16:56.185Z,59.53
2023-07-23T22:19:35.462Z,59.85
2023-07-23T22:22:23.613Z,60.33
2023-07-23T22:25:03.284Z,60.26
2023-07-23T22:27:42.636Z,60.50
2023-07-23T22:30:30.911Z,60.86
2023-07-23T22:33:11.455Z,60.38
2023-07-23T22:35:50.825Z,60.65
2023-07-23T22:38:35.509Z,60.90
2023-07-23T22:41:14.793Z,60.95
2023-07-23T22:43:57.084Z,60.93
2023-07-23T22:46:36.802Z,61.09
2023-07-23T22:49:16.298Z,61.26
2023-07-23T22:51:55.613Z,61.40
2023-07-23T22:54:40.032Z,61.69
2023-07-23T22:57:22.566Z,61.72
2023-07-23T23:00:06.285Z,61.92
2023-07-23T23:02:46.033Z,61.74
2023-07-23T23:05:25.787Z,62.01
2023-07-23T23:08:05.122Z,62.20
2023-07-23T23:10:49.488Z,61.89
2023-07-23T23:13:28.964Z,62.03
2023-07-23T23:16:09.105Z,62.13
2023-07-23T23:18:48.611Z,62.09
2023-07-23T23:21:28.362Z,61.96
2023-07-23T23:24:08.458Z,62.03
2023-07-23T23:26:53.004Z,62.23
2023-07-23T23:29:32.323Z,62.46
2023-07-23T23:32:12.589Z,62.74
2023-07-23T23:34:51.894Z,62.83
2023-07-23T23:37:31.237Z,62.71
2023-07-23T23:40:10.906Z,62.18
2023-07-23T23:42:55.318Z,61.99
2023-07-23T23:45:34.617Z,62.25
2023-07-23T23:48:13.959Z,62.31
2023-07-23T23:50:53.658Z,62.12
2023-07-23T23:53:33.058Z,62.07
2023-07-23T23:56:13.287Z,61.97
2023-07-23T23:58:57.671Z,61.42
